createdAt,value
2022-12-12T00:03:14.700Z,97693.59
2022-12-12T00:08:18.412Z,97691.06
2022-12-12T00:13:23.485Z,97683.38
2022-12-12T00:18:26.879Z,97684.25
2022-12-12T00:23:30.335Z,97693.63
2022-12-12T00:28:35.606Z,97690.28
2022-12-12T00:33:39.262Z,97690.28
2022-12-12T00:38:42.870Z,97681.72
2022-12-12T00:43:48.055Z,97665.47
2022-12-12T00:48:51.867Z,97682.56
2022-12-12T00:53:55.478Z,97684.28
2022-12-12T00:59:00.449Z,97674.88
2022-12-12T01:04:04.986Z,97674.03
2022-12-12T01:09:08.547Z,97680.03
2022-12-12T01:14:13.457Z,97674.88
2022-12-12T01:19:16.778Z,97676.59
2022-12-12T01:24:20.120Z,97680.88
2022-12-12T01:29:25.333Z,97677.47
2022-12-12T01:34:28.979Z,97700.53
2022-12-12T01:39:32.692Z,97675.75
2022-12-12T01:44:44.773Z,97674.91
2022-12-12T01:49:53.371Z,97668.91
2022-12-12T01:54:59.877Z,97673.16
2022-12-12T02:00:07.492Z,97667.16
2022-12-12T02:05:20.501Z,97676.56
2022-12-12T02:10:24.185Z,97665.44
2022-12-12T02:15:39.847Z,97661.19
2022-12-12T02:20:59.648Z,97669.75
2022-12-12T02:26:42.744Z,97671.44
2022-12-12T02:31:53.816Z,97673.16
2022-12-12T02:37:06.631Z,97680.88
2022-12-12T02:42:19.746Z,97678.31
2022-12-12T02:47:28.130Z,97678.28
2022-12-12T02:52:32.118Z,97676.59
2022-12-12T02:57:35.701Z,97680.00
2022-12-12T03:03:25.919Z,97683.44
2022-12-12T03:08:46.495Z,97686.84
2022-12-12T03:13:58.935Z,97685.97
2022-12-12T03:19:13.557Z,97685.97
2022-12-12T03:24:24.046Z,97687.69
2022-12-12T03:29:31.206Z,97699.66
2022-12-12T03:34:41.071Z,97703.94
2022-12-12T03:39:49.441Z,97699.66
2022-12-12T03:45:02.323Z,97693.66
2022-12-12T03:50:16.431Z,97702.22
2022-12-12T03:55:26.649Z,97693.66
2022-12-12T04:00:34.125Z,97697.94
2022-12-12T04:06:05.457Z,97685.97
2022-12-12T04:11:36.623Z,97693.66
2022-12-12T04:16:44.238Z,97687.66
2022-12-12T04:22:15.379Z,97687.66
2022-12-12T04:27:27.516Z,97687.66
2022-12-12T04:32:35.839Z,97696.22
2022-12-12T04:37:44.813Z,97695.38
2022-12-12T04:42:55.064Z,97703.06
2022-12-12T04:48:00.349Z,97690.22
2022-12-12T04:53:16.554Z,97692.81
2022-12-12T04:58:22.429Z,97690.25
2022-12-12T05:03:37.613Z,97686.81
2022-12-12T05:08:44.306Z,97691.97
2022-12-12T05:13:47.744Z,97696.25
2022-12-12T05:18:51.392Z,97696.25
2022-12-12T05:23:56.318Z,97686.81
2022-12-12T05:29:05.292Z,97694.28
2022-12-12T05:34:10.436Z,97697.31
2022-12-12T05:39:15.449Z,97698.19
2022-12-12T05:44:18.934Z,97717.56
2022-12-12T05:49:22.754Z,97713.41
2022-12-12T05:54:27.707Z,97706.44
2022-12-12T05:59:31.471Z,97721.22
2022-12-12T06:04:34.985Z,97715.28
2022-12-12T06:09:40.732Z,97734.56
2022-12-12T06:14:44.194Z,97721.47
2022-12-12T06:19:47.778Z,97727.56
2022-12-12T06:24:53.198Z,97718.22
2022-12-12T06:29:56.847Z,97714.63
2022-12-12T06:35:00.230Z,97723.94
2022-12-12T06:40:05.807Z,97718.56
2022-12-12T06:45:09.735Z,97739.31
2022-12-12T06:50:15.014Z,97720.66
2022-12-12T06:55:21.675Z,97727.41
2022-12-12T07:00:25.072Z,97729.28
2022-12-12T07:05:28.479Z,97714.78
2022-12-12T07:10:33.465Z,97719.25
2022-12-12T07:15:36.989Z,97745.53
2022-12-12T07:20:41.851Z,97752.66
2022-12-12T07:25:46.925Z,97739.78
2022-12-12T07:30:50.648Z,97724.53
2022-12-12T07:35:59.471Z,97731.84
2022-12-12T07:41:07.383Z,97727.81
2022-12-12T07:46:12.688Z,97744.47
2022-12-12T07:51:17.172Z,97739.56
2022-12-12T07:56:22.416Z,97737.50
2022-12-12T08:01:30.040Z,97743.25
2022-12-12T08:06:33.953Z,97729.56
2022-12-12T08:11:46.077Z,97740.50
2022-12-12T08:16:49.959Z,97744.75
2022-12-12T08:21:53.598Z,97749.84
2022-12-12T08:26:58.838Z,97753.88
2022-12-12T08:32:04.282Z,97764.19
2022-12-12T08:37:07.872Z,97755.00
2022-12-12T08:42:13.630Z,97760.00
2022-12-12T08:47:17.326Z,97771.22
2022-12-12T08:52:20.677Z,97772.03
2022-12-12T08:57:26.750Z,97748.94
2022-12-12T09:02:30.358Z,97760.81
2022-12-12T09:07:34.150Z,97767.66
2022-12-12T09:12:41.855Z,97761.44
2022-12-12T09:17:45.775Z,97767.94
2022-12-12T09:22:49.185Z,97762.50
2022-12-12T09:27:54.254Z,97756.31
2022-12-12T09:32:57.579Z,97753.25
2022-12-12T09:38:01.345Z,97761.94
2022-12-12T09:43:06.603Z,97759.72
2022-12-12T09:48:10.836Z,97755.66
2022-12-12T09:53:17.222Z,97756.44
2022-12-12T09:58:28.013Z,97734.16
2022-12-12T10:03:43.916Z,97751.66
2022-12-12T10:08:57.706Z,97753.28
2022-12-12T10:14:06.340Z,97748.84
2022-12-12T10:19:16.304Z,97745.81
2022-12-12T10:24:31.761Z,97747.75
2022-12-12T10:29:41.426Z,97743.28
2022-12-12T10:34:55.231Z,97753.16
2022-12-12T10:40:10.924Z,97751.00
2022-12-12T10:45:46.773Z,97748.06
2022-12-12T10:50:53.059Z,97745.75
2022-12-12T10:56:00.878Z,97746.34
2022-12-12T11:01:12.294Z,97747.28
2022-12-12T11:06:20.268Z,97736.91
2022-12-12T11:11:25.486Z,97740.03
2022-12-12T11:16:41.039Z,97746.34
2022-12-12T11:21:45.016Z,97748.91
2022-12-12T11:26:54.002Z,97743.84
2022-12-12T11:32:00.648Z,97745.19
2022-12-12T11:37:04.792Z,97720.16
2022-12-12T11:42:20.506Z,97739.19
2022-12-12T11:47:27.830Z,97739.06
2022-12-12T11:52:33.084Z,97736.47
2022-12-12T11:57:53.114Z,97744.97
2022-12-12T12:03:28.607Z,97742.59
2022-12-12T12:08:45.422Z,97722.41
2022-12-12T12:14:05.187Z,97741.41
2022-12-12T12:19:18.451Z,97739.53
2022-12-12T12:24:46.194Z,97738.22
2022-12-12T12:30:18.517Z,97749.25
2022-12-12T12:35:31.048Z,97734.63
2022-12-12T12:40:46.050Z,97738.56
2022-12-12T12:45:54.323Z,97734.47
2022-12-12T12:51:06.330Z,97732.34
2022-12-12T12:56:25.145Z,97737.53
2022-12-12T13:01:36.484Z,97738.31
2022-12-12T13:06:47.712Z,97727.25
2022-12-12T13:11:56.061Z,97734.84
2022-12-12T13:17:07.042Z,97707.38
2022-12-12T13:22:16.757Z,97722.09
2022-12-12T13:27:25.568Z,97724.09
2022-12-12T13:32:57.863Z,97724.03
2022-12-12T13:38:04.534Z,97728.22
2022-12-12T13:43:10.393Z,97740.91
2022-12-12T13:48:46.301Z,97740.66
2022-12-12T13:54:14.082Z,97777.09
2022-12-12T13:59:31.303Z,97773.72
2022-12-12T14:04:37.165Z,97756.69
2022-12-12T14:09:48.652Z,97759.97
2022-12-12T14:14:57.260Z,97763.41
2022-12-12T14:20:02.119Z,97759.91
2022-12-12T14:25:09.912Z,97767.16
2022-12-12T14:30:19.189Z,97755.00
2022-12-12T14:35:33.000Z,97749.00
2022-12-12T14:40:44.793Z,97742.94
2022-12-12T14:45:56.400Z,97742.28
2022-12-12T14:51:10.675Z,97735.59
2022-12-12T14:56:18.042Z,97743.19
2022-12-12T15:01:33.897Z,97750.94
2022-12-12T15:06:39.466Z,97744.75
2022-12-12T15:11:44.921Z,97746.34
2022-12-12T15:16:53.426Z,97730.19
2022-12-12T15:21:58.426Z,97731.94
2022-12-12T15:27:03.206Z,97736.16
2022-12-12T15:32:09.583Z,97736.16
2022-12-12T15:37:21.066Z,97738.09
2022-12-12T15:42:26.225Z,97732.84
2022-12-12T15:47:29.922Z,97735.34
2022-12-12T15:52:33.355Z,97732.16
2022-12-12T15:57:48.792Z,97727.59
2022-12-12T16:03:20.102Z,97712.41
2022-12-12T16:08:36.866Z,97735.25
2022-12-12T16:13:45.171Z,97744.06
2022-12-12T16:18:48.796Z,97750.03
2022-12-12T16:23:52.291Z,97740.75
2022-12-12T16:28:57.347Z,97737.69
2022-12-12T16:34:03.791Z,97731.06
2022-12-12T16:39:07.582Z,97718.31
2022-12-12T16:44:12.452Z,97720.75
2022-12-12T16:49:15.920Z,97727.91
2022-12-12T16:54:19.666Z,97740.72
2022-12-12T16:59:24.697Z,97744.28
2022-12-12T17:04:28.914Z,97736.34
2022-12-12T17:09:32.817Z,97743.31
2022-12-12T17:14:37.826Z,97733.03
2022-12-12T17:19:41.461Z,97754.25
2022-12-12T17:24:44.954Z,97761.28
2022-12-12T17:29:50.025Z,97754.28
2022-12-12T17:34:53.439Z,97763.00
2022-12-12T17:39:57.161Z,97750.72
2022-12-12T17:45:20.698Z,97750.06
2022-12-12T17:50:24.241Z,97754.47
2022-12-12T17:55:51.866Z,97758.78
2022-12-12T18:00:52.707Z,97763.94
2022-12-12T18:05:56.168Z,97760.50
2022-12-12T18:10:59.880Z,97754.50
2022-12-12T18:16:05.065Z,97753.72
2022-12-12T18:21:12.872Z,97762.31
2022-12-12T18:26:22.288Z,97766.41
2022-12-12T18:31:27.550Z,97776.03
2022-12-12T18:36:32.696Z,97780.22
2022-12-12T18:41:37.150Z,97785.41
2022-12-12T18:46:43.811Z,97787.16
2022-12-12T18:51:48.580Z,97806.09
2022-12-12T18:56:52.193Z,97800.22
2022-12-12T19:01:57.418Z,97803.06
2022-12-12T19:07:01.035Z,97799.09
2022-12-12T19:12:05.082Z,97806.94
2022-12-12T19:17:10.206Z,97812.88
2022-12-12T19:22:39.978Z,97815.72
2022-12-12T19:27:37.502Z,97809.78
2022-12-12T19:32:42.373Z,97822.53
2022-12-12T19:37:45.863Z,97819.09
2022-12-12T19:42:49.207Z,97836.28
2022-12-12T19:47:54.212Z,97834.47
2022-12-12T19:52:57.558Z,97840.56
2022-12-12T19:58:02.911Z,97843.84
2022-12-12T20:03:08.006Z,97838.72
2022-12-12T20:08:11.649Z,97850.81
2022-12-12T20:13:15.086Z,97857.63
2022-12-12T20:18:20.096Z,97848.19
2022-12-12T20:23:23.610Z,97852.53
2022-12-12T20:28:27.341Z,97850.00
2022-12-12T20:33:32.239Z,97862.91
2022-12-12T20:38:37.802Z,97867.06
2022-12-12T20:43:42.199Z,97880.09
2022-12-12T20:48:48.177Z,97870.50
2022-12-12T20:53:52.558Z,97875.75
2022-12-12T20:58:57.849Z,97887.78
2022-12-12T21:04:04.541Z,97879.06
2022-12-12T21:09:10.625Z,97888.56
2022-12-12T21:14:14.274Z,97896.34
2022-12-12T21:19:21.175Z,97907.44
2022-12-12T21:24:24.705Z,97896.31
2022-12-12T21:29:28.297Z,97898.78
2022-12-12T21:34:33.025Z,97898.78
2022-12-12T21:39:36.650Z,97902.28
2022-12-12T21:44:45.513Z,97897.91
2022-12-12T21:49:50.905Z,97903.94
2022-12-12T21:54:54.362Z,97902.34
2022-12-12T21:59:57.986Z,97904.09
2022-12-12T22:05:02.842Z,97910.84
2022-12-12T22:10:11.028Z,97913.47
2022-12-12T22:15:16.455Z,97919.50
2022-12-12T22:20:21.701Z,97917.75
2022-12-12T22:25:24.879Z,97925.50
2022-12-12T22:30:28.497Z,97943.47
2022-12-12T22:35:33.364Z,97927.25
2022-12-12T22:40:36.704Z,97946.06
2022-12-12T22:45:40.122Z,97934.19
2022-12-12T22:50:45.116Z,97933.16
2022-12-12T22:55:48.543Z,97933.22
2022-12-12T23:00:52.097Z,97952.97
2022-12-12T23:06:03.585Z,97956.31
2022-12-12T23:11:09.703Z,97946.09
2022-12-12T23:16:15.924Z,97942.72
2022-12-12T23:21:24.637Z,97962.41
2022-12-12T23:26:30.634Z,97962.38
2022-12-12T23:31:37.967Z,97959.00
2022-12-12T23:36:44.217Z,97962.41
2022-12-12T23:41:47.882Z,97963.25
2022-12-12T23:46:51.944Z,97960.66
2022-12-12T23:51:59.304Z,97976.25
2022-12-12T23:57:03.508Z,97973.63
